Time;durP1;ratioP1;P1;durP2;ratioP2;P2;SDS_P1;SDS_P2;PMS_P1;PMS_P2;Temp;Humidity;BMP_temperature;BMP_pressure;BME280_temperature;BME280_humidity;BME280_pressure;Samples;Min_cycle;Max_cycle;Signal;HPM_P1;HPM_P2
2022/06/21 00:00:20;;;;;;;6.50;3.85;;;11.10;99.90;;;9.91;100.00;100690.78;4873817;28;20041;-79
2022/06/21 00:03:24;;;;;;;9.50;3.78;;;11.10;99.90;;;9.92;100.00;100695.13;4883488;28;20042;-79
2022/06/21 00:05:52;;;;;;;12.70;4.18;;;11.10;99.90;;;9.93;100.00;100704.72;4888330;28;20497;-79
2022/06/21 00:08:27;;;;;;;17.38;4.35;;;11.10;99.90;;;9.95;100.00;100701.09;4919218;28;20101;-79
2022/06/21 00:10:55;;;;;;;17.60;4.30;;;11.20;99.90;;;10.01;100.00;100695.56;4887808;28;20027;-78
2022/06/21 00:13:34;;;;;;;7.47;4.40;;;11.20;99.90;;;10.14;100.00;100697.66;4918142;23;20403;-79
2022/06/21 00:16:31;;;;;;;7.20;4.35;;;11.30;99.90;;;10.19;100.00;100693.03;4881165;28;20392;-80
2022/06/21 00:19:07;;;;;;;;;;;;;;;;;;;;;
2022/06/21 00:21:39;;;;;;;13.40;4.65;;;11.40;99.90;;;10.24;100.00;100693.69;4904667;28;19925;-79
2022/06/21 00:24:05;;;;;;;24.45;4.97;;;11.50;99.90;;;10.29;100.00;100696.09;4922599;28;20022;-79
2022/06/21 00:26:36;;;;;;;8.55;4.55;;;11.40;99.90;;;10.32;100.00;100702.09;4962887;28;20025;-79
2022/06/21 00:29:02;;;;;;;8.32;4.82;;;11.50;99.90;;;10.35;100.00;100701.97;4934513;28;20501;-79
2022/06/21 00:31:42;;;;;;;10.82;5.18;;;11.50;99.90;;;10.38;100.00;100703.59;4909104;28;20594;-79
2022/06/21 00:34:14;;;;;;;16.55;4.65;;;11.50;99.90;;;10.33;100.00;100700.34;4958306;28;20501;-79
2022/06/21 00:36:44;;;;;;;11.52;4.95;;;11.50;99.90;;;10.33;100.00;100701.19;4991900;28;20046;-79
2022/06/21 00:39:16;;;;;;;12.52;5.32;;;11.50;99.90;;;10.36;100.00;100697.56;4959237;28;20029;-79
2022/06/21 00:41:55;;;;;;;12.02;4.80;;;11.50;99.90;;;10.33;100.00;100701.19;4897396;28;20037;-79
2022/06/21 00:44:57;;;;;;;;;;;;;;;;;;;;;
2022/06/21 00:47:31;;;;;;;11.85;5.35;;;;;;;10.27;100.00;100702.28;4896709;28;20166;-79
2022/06/21 00:50:20;;;;;;;9.88;5.13;;;;;;;10.26;100.00;100699.72;4892696;28;20117;-79
2022/06/21 00:53:21;;;;;;;12.60;5.35;;;11.50;99.90;;;10.26;100.00;100705.00;4954918;28;20153;-79
2022/06/21 00:56:03;;;;;;;18.65;6.43;;;11.40;99.90;;;10.24;100.00;100701.59;4961567;28;20045;-79
2022/06/21 00:58:30;;;;;;;12.75;6.18;;;11.40;99.90;;;10.22;100.00;100698.16;4951980;28;20037;-79
2022/06/21 01:01:18;;;;;;;15.32;5.90;;;11.40;99.90;;;10.21;100.00;100702.53;4933817;28;20039;-79
2022/06/21 01:04:10;;;;;;;17.25;5.93;;;11.40;99.90;;;10.20;100.00;100700.00;4951496;28;20127;-79
2022/06/21 01:06:43;;;;;;;17.27;6.00;;;11.30;99.90;;;10.16;100.00;100688.75;4942308;28;20067;-79
2022/06/21 01:09:25;;;;;;;12.90;5.82;;;11.30;99.90;;;10.14;100.00;100697.66;4890202;28;20462;-79
2022/06/21 01:12:40;;;;;;;13.50;5.68;;;11.30;99.90;;;10.09;100.00;100687.34;4907054;28;20026;-79
2022/06/21 01:15:16;;;;;;;21.95;6.32;;;11.30;99.90;;;10.03;100.00;100672.69;4942816;28;20041;-79
2022/06/21 01:17:48;;;;;;;19.87;6.20;;;11.20;99.90;;;9.99;100.00;100689.50;4923545;28;20105;-79
2022/06/21 01:20:23;;;;;;;17.77;6.47;;;11.20;99.90;;;9.92;100.00;100687.25;4945443;28;20100;-79
2022/06/21 01:23:41;;;;;;;12.23;5.53;;;11.10;99.90;;;9.81;100.00;100690.34;4898759;28;20023;-79
2022/06/21 01:26:42;;;;;;;17.20;6.50;;;11.00;99.90;;;9.75;100.00;100699.34;4946967;28;20030;-79
2022/06/21 01:29:14;;;;;;;13.52;6.20;;;10.90;99.90;;;9.68;100.00;100699.69;4955917;28;24308;-79
2022/06/21 01:31:42;;;;;;;24.33;6.07;;;10.90;99.90;;;9.62;100.00;100700.81;4928359;28;20068;-79
2022/06/21 01:34:23;;;;;;;16.40;5.97;;;10.90;99.90;;;9.56;100.00;100693.19;4915845;28;20054;-79
2022/06/21 01:37:14;;;;;;;19.55;6.07;;;10.80;99.90;;;9.54;100.00;100695.84;4890903;28;20075;-79
2022/06/21 01:40:00;;;;;;;17.50;5.15;;;10.70;99.90;;;9.43;100.00;100698.09;4959488;28;20029;-79
2022/06/21 01:42:40;;;;;;;24.65;6.22;;;10.60;99.90;;;9.34;100.00;100698.50;4911250;28;20251;-79
2022/06/21 01:45:15;;;;;;;22.08;6.05;;;10.60;99.90;;;9.28;100.00;100685.59;4885146;28;20026;-80
2022/06/21 01:48:03;;;;;;;19.40;6.40;;;10.50;99.90;;;9.20;100.00;100684.16;4971587;28;20030;-79
2022/06/21 01:50:39;;;;;;;19.33;6.30;;;10.50;99.90;;;9.15;100.00;100693.97;4939981;28;20033;-79
2022/06/21 01:53:08;;;;;;;16.42;6.45;;;10.40;99.90;;;9.14;100.00;100687.03;4945142;28;20030;-79
2022/06/21 01:55:55;;;;;;;20.25;6.55;;;10.50;99.90;;;9.23;100.00;100697.16;4905188;28;20434;-79
2022/06/21 01:58:28;;;;;;;25.77;6.80;;;10.40;99.90;;;9.26;100.00;100704.06;4934620;28;20950;-79
2022/06/21 02:01:15;;;;;;;18.48;7.32;;;10.50;99.90;;;9.28;100.00;100698.75;4968409;28;20038;-79
2022/06/21 02:03:43;;;;;;;15.43;7.10;;;10.50;99.90;;;9.28;100.00;100696.13;4930007;28;20030;-79
2022/06/21 02:06:13;;;;;;;19.88;7.20;;;10.50;99.90;;;9.27;100.00;100702.31;4914086;28;21082;-79
2022/06/21 02:08:52;;;;;;;20.92;7.03;;;10.50;99.90;;;9.24;100.00;100701.50;4897693;28;20030;-79
2022/06/21 02:11:36;;;;;;;15.52;7.80;;;10.50;99.90;;;9.30;100.00;100696.91;4908619;28;20086;-79
2022/06/21 02:20:47;;;;;;;17.13;7.05;;;10.60;99.90;;;9.38;100.00;100700.06;4892283;28;20038;-79
2022/06/21 02:23:26;;;;;;;;;;;;;;;;;;;;;
2022/06/21 02:25:55;;;;;;;15.95;7.72;;;;;;;9.47;100.00;100710.19;4875344;28;20652;-79
2022/06/21 02:28:31;;;;;;;18.67;8.52;;;10.70;99.90;;;9.48;100.00;100718.94;4906100;28;20495;-79
2022/06/21 02:30:58;;;;;;;20.65;8.35;;;10.70;99.90;;;9.50;100.00;100717.94;4891918;28;20125;-79
2022/06/21 02:33:36;;;;;;;16.73;8.07;;;10.70;99.90;;;9.53;100.00;100715.19;4861497;28;20579;-79
2022/06/21 02:36:17;;;;;;;29.20;8.02;;;10.70;99.90;;;9.55;100.00;100720.41;4905438;28;20054;-79
2022/06/21 02:38:54;;;;;;;17.90;8.48;;;10.80;99.90;;;9.62;100.00;100714.78;4930376;28;20095;-79
2022/06/21 02:41:54;;;;;;;20.13;8.07;;;10.80;99.90;;;9.69;100.00;100714.53;4914750;28;20030;-79
2022/06/21 02:44:38;;;;;;;19.63;8.30;;;10.90;99.90;;;9.73;100.00;100716.13;4934695;28;20115;-79
2022/06/21 02:47:14;;;;;;;23.80;8.57;;;10.90;99.90;;;9.76;100.00;100710.72;4963863;28;20153;-79
2022/06/21 02:50:04;;;;;;;30.70;7.85;;;10.90;99.90;;;9.79;100.00;100719.34;4893581;28;20049;-79
2022/06/21 02:52:43;;;;;;;20.02;8.40;;;10.90;99.90;;;9.82;100.00;100719.19;4891863;28;20277;-79
2022/06/21 02:55:41;;;;;;;18.52;7.80;;;11.00;99.90;;;9.86;100.00;100714.66;4959976;28;20033;-79
2022/06/21 02:58:31;;;;;;;24.60;8.25;;;11.00;99.90;;;9.91;100.00;100720.56;4965664;28;20092;-78
2022/06/21 03:01:03;;;;;;;22.83;8.48;;;11.00;99.90;;;9.92;100.00;100716.19;4960110;28;20037;-79
2022/06/21 03:03:33;;;;;;;14.57;7.22;;;11.00;99.90;;;9.96;100.00;100712.50;4911547;28;20030;-80
2022/06/21 03:06:05;;;;;;;13.85;8.65;;;11.10;99.90;;;10.00;100.00;100720.19;4907091;28;20030;-79
2022/06/21 03:08:33;;;;;;;23.88;9.63;;;11.10;99.90;;;10.07;100.00;100720.75;4935251;28;20118;-78
2022/06/21 03:11:00;;;;;;;32.03;9.55;;;11.20;99.90;;;10.12;100.00;100723.19;4952575;28;20018;-78
2022/06/21 03:13:34;;;;;;;18.55;8.77;;;11.20;99.90;;;10.17;100.00;100724.69;4906253;28;20030;-78
2022/06/21 03:16:13;;;;;;;21.88;9.00;;;11.30;99.90;;;10.23;100.00;100724.38;4938691;28;20051;-79
2022/06/21 03:18:52;;;;;;;22.15;9.10;;;11.30;99.90;;;10.28;100.00;100718.94;4940664;28;20042;-78
2022/06/21 03:21:52;;;;;;;25.83;8.85;;;11.40;99.90;;;10.32;100.00;100720.50;4906430;28;21329;-78
2022/06/21 03:24:22;;;;;;;23.35;9.40;;;11.40;99.90;;;10.35;100.00;100736.19;4942199;28;20524;-78
2022/06/21 03:26:59;;;;;;;30.25;10.10;;;11.50;99.90;;;10.40;100.00;100731.56;4921824;28;20041;-78
2022/06/21 03:29:25;;;;;;;21.42;9.55;;;11.50;99.90;;;10.44;100.00;100727.00;4954800;28;20034;-79
2022/06/21 03:31:55;;;;;;;24.42;9.75;;;11.60;99.90;;;10.51;100.00;100735.47;4941908;28;20034;-78
2022/06/21 03:34:24;;;;;;;26.42;10.05;;;11.60;99.90;;;10.57;100.00;100730.78;4930729;28;22210;-78
2022/06/21 03:36:53;;;;;;;21.35;10.60;;;11.60;99.90;;;10.63;100.00;100727.88;4913223;28;20038;-78
2022/06/21 03:42:35;;;;;;;30.88;10.50;;;11.80;99.90;;;10.78;100.00;100733.34;4926866;28;20542;-78
2022/06/21 03:45:15;;;;;;;28.35;9.90;;;11.90;99.90;;;10.85;100.00;100743.50;4963087;28;20049;-78
2022/06/21 03:47:55;;;;;;;26.17;8.82;;;11.90;99.90;;;10.90;100.00;100740.66;4927628;28;20106;-78
2022/06/21 03:50:39;;;;;;;22.95;9.52;;;12.00;99.90;;;10.96;100.00;100744.78;4946336;28;20054;-79
2022/06/21 03:53:19;;;;;;;22.45;9.30;;;12.00;99.90;;;11.05;100.00;100750.44;4992682;28;20025;-78
2022/06/21 03:55:51;;;;;;;26.30;8.98;;;12.10;99.90;;;11.17;100.00;100746.38;4962231;28;20038;-78
2022/06/21 03:59:09;;;;;;;19.75;9.10;;;12.20;99.90;;;11.40;100.00;100752.28;4997104;28;20496;-78
2022/06/21 04:02:16;;;;;;;19.27;8.27;;;12.40;99.90;;;11.50;100.00;100764.09;4927012;28;20093;-78
2022/06/21 04:05:01;;;;;;;16.52;7.72;;;12.50;99.90;;;11.57;100.00;100762.84;4954739;28;20029;-78
2022/06/21 04:07:53;;;;;;;20.00;7.28;;;12.60;99.90;;;11.60;100.00;100765.34;4947629;28;20034;-78
2022/06/21 04:10:34;;;;;;;21.05;7.13;;;12.60;99.90;;;11.87;100.00;100772.78;4898561;28;20034;-78
2022/06/21 04:13:31;;;;;;;20.05;8.18;;;13.10;99.90;;;12.24;100.00;100762.97;4929883;28;20038;-78
2022/06/21 04:16:29;;;;;;;18.85;8.10;;;13.10;99.90;;;12.36;100.00;100770.25;4918465;28;20040;-79
2022/06/21 04:19:12;;;;;;;32.78;8.68;;;13.30;99.90;;;12.42;100.00;100767.28;4958040;28;20029;-78
2022/06/21 04:22:12;;;;;;;19.10;8.52;;;13.30;99.90;;;12.30;100.00;100763.50;4930436;28;20029;-78
2022/06/21 04:24:59;;;;;;;18.95;7.97;;;13.30;99.90;;;12.20;100.00;100775.50;4970389;28;20022;-78
2022/06/21 04:27:46;;;;;;;27.75;8.20;;;13.20;99.90;;;12.28;100.00;100780.38;4950403;28;20026;-78
2022/06/21 04:30:31;;;;;;;22.77;8.87;;;13.30;99.90;;;12.30;100.00;100789.06;4954626;28;20642;-79
2022/06/21 04:33:17;;;;;;;21.15;8.00;;;13.20;99.90;;;12.22;100.00;100796.53;4954036;28;20260;-78
2022/06/21 04:36:13;;;;;;;23.15;8.02;;;13.30;99.90;;;12.30;100.00;100811.03;4937448;28;20484;-78
2022/06/21 04:39:00;;;;;;;20.13;7.05;;;13.30;99.90;;;12.23;100.00;100803.53;4937080;28;20068;-78
2022/06/21 04:41:43;;;;;;;25.60;7.95;;;13.30;99.90;;;12.25;100.00;100804.31;4956222;28;20063;-78
2022/06/21 04:44:29;;;;;;;21.15;7.88;;;13.30;99.90;;;12.27;100.00;100802.44;4952218;28;20029;-79
2022/06/21 04:47:23;;;;;;;21.13;8.10;;;13.30;99.90;;;12.39;100.00;100817.63;4952172;28;20089;-78
2022/06/21 04:50:02;;;;;;;30.90;7.75;;;13.50;99.90;;;12.55;100.00;100816.78;4974375;28;20410;-79
2022/06/21 04:52:42;;;;;;;20.85;6.93;;;13.50;99.90;;;12.65;100.00;100816.22;4980558;28;20025;-78
2022/06/21 04:55:16;;;;;;;22.73;7.85;;;13.70;99.90;;;12.88;100.00;100830.00;4954808;28;20032;-78
2022/06/21 04:57:48;;;;;;;20.92;7.28;;;13.80;99.90;;;13.15;100.00;100830.25;4915249;28;20025;-78
2022/06/21 05:00:19;;;;;;;26.63;7.97;;;14.00;99.90;;;13.29;100.00;100822.44;4913166;28;20042;-78
2022/06/21 05:03:11;;;;;;;24.17;7.35;;;14.20;99.90;;;13.66;100.00;100832.72;4908113;28;20491;-79
2022/06/21 05:05:38;;;;;;;16.10;6.10;;;14.40;99.90;;;13.77;100.00;100829.44;4972894;28;20029;-78
2022/06/21 05:08:16;;;;;;;24.52;6.60;;;14.50;99.90;;;14.00;100.00;100836.88;4914326;28;20178;-78
2022/06/21 05:10:47;;;;;;;25.65;6.93;;;14.70;99.90;;;14.13;100.00;100832.56;4928855;28;20390;-78
2022/06/21 05:13:27;;;;;;;26.60;6.57;;;14.90;99.90;;;14.64;100.00;100840.09;4930761;28;20547;-79
2022/06/21 05:15:57;;;;;;;27.90;5.75;;;15.10;99.90;;;14.66;100.00;100837.38;4964199;28;20044;-79
2022/06/21 05:19:13;;;;;;;21.17;5.95;;;15.40;99.90;;;16.63;100.00;100841.25;4941852;28;20030;-78
2022/06/21 05:23:05;;;;;;;;;;;;;;;;;;;;;
2022/06/21 05:25:52;;;;;;;21.58;4.93;;;17.60;99.90;;;17.54;95.15;100856.03;4926306;28;20031;-79
2022/06/21 05:32:12;;;;;;;17.10;4.47;;;17.30;99.90;;;16.66;97.78;100874.72;4778498;29;20037;-79
2022/06/21 05:35:33;;;;;;;18.23;4.85;;;17.30;99.90;;;17.39;96.65;100861.50;4775339;29;20038;-78
2022/06/21 05:42:55;;;;;;;25.58;4.70;;;18.60;99.90;;;18.51;88.27;100878.03;4815288;29;20037;-79
2022/06/21 05:45:31;;;;;;;21.20;3.72;;;18.60;99.90;;;18.19;90.14;100881.38;4838095;28;20038;-78
2022/06/21 05:48:12;;;;;;;13.50;3.60;;;18.40;99.90;;;17.82;91.17;100877.00;4875225;28;20037;-79
2022/06/21 05:50:38;;;;;;;22.23;3.80;;;18.10;99.90;;;17.22;93.80;100876.03;4920894;28;20541;-79
2022/06/21 05:53:37;;;;;;;17.42;3.70;;;17.90;99.90;;;17.02;95.98;100872.16;4963140;28;20093;-78
2022/06/21 05:56:12;;;;;;;22.25;4.00;;;17.60;99.90;;;16.68;98.23;100878.13;4950139;28;20045;-78
2022/06/21 05:58:51;;;;;;;14.43;4.10;;;17.40;99.90;;;16.49;100.00;100879.38;4897468;28;20054;-79
2022/06/21 06:01:54;;;;;;;21.88;3.83;;;17.30;99.90;;;16.53;100.00;100875.56;4954590;28;20058;-78
2022/06/21 06:04:33;;;;;;;16.58;3.30;;;17.40;99.90;;;17.02;100.00;100881.97;4925476;28;20030;-78
2022/06/21 06:07:01;;;;;;;15.82;2.88;;;17.70;99.90;;;17.62;97.41;100886.47;4917046;28;20034;-79
2022/06/21 06:09:37;;;;;;;22.10;3.80;;;18.10;99.90;;;18.40;93.45;100892.19;4955383;28;20026;-78
2022/06/21 06:12:21;;;;;;;14.00;3.00;;;18.60;99.90;;;19.13;88.30;100895.44;4921811;28;20029;-78
2022/06/21 06:15:02;;;;;;;16.42;2.88;;;19.20;99.90;;;20.28;82.50;100908.22;4980135;28;20041;-79
2022/06/21 06:17:48;;;;;;;17.98;3.50;;;20.40;99.90;;;22.01;74.14;100917.19;4917006;28;20061;-79
2022/06/21 06:20:43;;;;;;;19.58;3.25;;;21.10;99.90;;;21.23;74.75;100909.88;4971718;28;20384;-78
2022/06/21 06:23:40;;;;;;;9.65;2.67;;;21.20;99.90;;;20.74;74.36;100921.34;4964714;28;20035;-79
2022/06/21 06:26:15;;;;;;;15.20;2.75;;;20.80;99.90;;;20.36;77.05;100922.75;4948305;28;20058;-78
2022/06/21 06:29:17;;;;;;;20.58;2.95;;;20.90;99.90;;;21.42;73.91;100925.16;4948619;28;20057;-79
2022/06/21 06:31:59;;;;;;;16.70;2.40;;;21.30;99.90;;;21.71;72.28;100927.91;4978859;28;20053;-78
2022/06/21 06:34:31;;;;;;;20.02;3.50;;;22.10;99.90;;;24.00;64.81;100937.56;4939777;28;20049;-78
2022/06/21 06:37:37;;;;;;;12.35;2.47;;;22.70;99.90;;;23.23;65.75;100941.56;4984052;28;20034;-78
2022/06/21 06:40:06;;;;;;;14.02;2.30;;;22.20;99.90;;;20.75;70.71;100931.91;4904377;28;20649;-78
2022/06/21 06:42:39;;;;;;;13.65;2.17;;;22.20;99.90;;;22.92;66.58;100948.00;4902303;28;20075;-77
2022/06/21 06:45:19;;;;;;;18.90;2.97;;;22.80;99.90;;;23.04;65.43;100943.31;4941513;28;21242;-78
2022/06/21 06:47:53;;;;;;;13.90;2.20;;;22.80;99.90;;;22.69;66.81;100941.28;4950450;28;20046;-77
2022/06/21 06:50:53;;;;;;;12.27;2.15;;;22.40;99.90;;;21.33;69.76;100934.00;4923758;28;20068;-78
2022/06/21 06:53:41;;;;;;;17.05;2.30;;;21.70;99.90;;;20.92;73.62;100943.00;4964036;28;20029;-79
2022/06/21 06:56:19;;;;;;;17.55;2.97;;;21.30;99.90;;;20.82;73.13;100941.13;4960809;28;20038;-78
2022/06/21 06:59:06;;;;;;;17.35;2.50;;;20.90;99.90;;;19.95;73.29;100943.97;4918098;28;20030;-77
2022/06/21 07:02:22;;;;;;;13.30;2.70;;;20.40;99.90;;;19.93;75.70;100945.91;4971762;28;20098;-78
2022/06/21 07:05:03;;;;;;;17.67;2.88;;;20.70;99.90;;;20.60;75.15;100958.16;4944775;28;20098;-78
2022/06/21 07:08:13;;;;;;;14.20;2.33;;;21.10;99.90;;;20.77;72.32;100959.38;4928315;28;20034;-78
2022/06/21 07:10:38;;;;;;;25.15;2.97;;;20.70;99.90;;;19.50;76.10;100959.22;4965409;28;20440;-78
2022/06/21 07:13:04;;;;;;;17.70;3.03;;;20.40;99.90;;;19.49;76.90;100963.72;4964326;28;20050;-77
2022/06/21 07:15:39;;;;;;;;;;;20.40;99.90;;;20.04;75.04;100966.41;4945607;28;20098;-78
2022/06/21 07:18:52;;;;;;;18.83;2.58;;;21.00;99.90;;;22.07;68.59;100973.81;4906832;28;19923;-77
2022/06/21 07:21:26;;;;;;;15.88;2.22;;;22.00;99.90;;;22.92;65.75;100982.91;4862498;28;20035;-78
2022/06/21 07:23:53;;;;;;;17.30;2.15;;;23.20;99.90;;;24.51;60.62;100986.28;4940204;28;20165;-77
2022/06/21 07:26:46;;;;;;;17.55;3.13;;;23.90;99.90;;;23.70;59.34;100987.13;4965769;28;20715;-77
2022/06/21 07:30:05;;;;;;;16.38;2.28;;;24.20;99.90;;;23.71;59.36;100999.56;4935579;28;20549;-78
2022/06/21 07:32:35;;;;;;;;;;;23.70;99.90;;;22.05;61.74;101004.41;4941934;28;20100;-78
2022/06/21 07:35:07;;;;;;;14.13;2.25;;;23.20;99.90;;;22.67;64.65;101003.16;4952482;28;19913;-78
2022/06/21 07:37:54;;;;;;;17.15;2.40;;;23.20;99.90;;;22.15;62.88;101005.28;4971132;28;20050;-77
2022/06/21 07:40:59;;;;;;;15.13;2.42;;;22.60;99.90;;;21.58;66.61;101007.72;4960476;28;20037;-78
2022/06/21 07:43:36;;;;;;;12.98;2.28;;;22.10;99.90;;;21.64;66.24;101008.97;4937429;28;20390;-78
2022/06/21 07:46:05;;;;;;;18.05;2.20;;;22.30;99.90;;;22.69;63.86;101013.75;4946792;28;20436;-78
2022/06/21 07:49:05;;;;;;;10.18;1.48;;;23.00;99.90;;;22.56;61.42;101014.06;4953665;28;20027;-77
2022/06/21 07:51:42;;;;;;;11.15;1.98;;;23.10;99.90;;;23.27;59.70;101012.81;4940857;28;20083;-78
2022/06/21 07:54:20;;;;;;;;;;;23.30;99.90;;;23.12;60.56;101005.22;4951127;28;20033;-77
2022/06/21 07:56:59;;;;;;;15.85;1.77;;;23.20;99.90;;;22.96;60.08;101015.69;4965414;28;19943;-77
2022/06/21 07:59:34;;;;;;;9.73;2.15;;;23.30;99.90;;;22.98;60.57;101020.91;4929096;28;20036;-78
2022/06/21 08:08:08;;;;;;;12.25;2.33;;;23.40;99.90;;;23.05;59.97;101033.66;4968455;28;20085;-75
2022/06/21 08:10:51;;;;;;;8.55;2.05;;;23.70;99.90;;;23.78;58.97;101035.66;4960831;28;20036;-77
2022/06/21 08:13:17;;;;;;;11.15;1.60;;;23.70;99.90;;;23.62;57.82;101047.00;4953878;28;20347;-78
2022/06/21 08:16:14;;;;;;;14.38;2.20;;;23.60;99.90;;;23.30;56.48;101034.00;4965416;28;20034;-78
2022/06/21 08:19:12;;;;;;;10.43;2.03;;;23.30;99.90;;;22.60;57.61;101045.00;4956538;28;20042;-78
2022/06/21 08:21:51;;;;;;;10.23;1.95;;;23.20;99.90;;;22.95;58.64;101046.22;4957920;28;20029;-78
2022/06/21 08:24:47;;;;;;;14.88;2.28;;;23.20;99.90;;;22.59;57.25;101046.00;4946247;28;20113;-78
2022/06/21 08:27:28;;;;;;;12.23;2.00;;;22.90;99.90;;;22.41;57.54;101047.69;4923131;28;20061;-77
2022/06/21 08:30:15;;;;;;;9.82;1.67;;;22.40;99.90;;;21.61;59.48;101034.22;4965529;28;20092;-77
2022/06/21 08:33:07;;;;;;;10.52;1.73;;;22.20;99.90;;;21.59;61.18;101040.69;4979726;28;20458;-77
2022/06/21 08:35:35;;;;;;;11.93;1.70;;;21.90;99.90;;;21.02;62.28;101042.94;4944863;28;20697;-78
2022/06/21 08:38:13;;;;;;;13.13;1.90;;;21.70;99.90;;;20.86;63.56;101038.03;4962202;28;20454;-78
2022/06/21 08:41:51;;;;;;;9.20;1.95;;;21.60;99.90;;;20.51;61.85;101032.97;4986684;28;20495;-77
2022/06/21 08:44:29;;;;;;;9.68;1.33;;;21.40;99.90;;;20.38;64.13;101039.31;4933314;28;20042;-78
2022/06/21 08:47:40;;;;;;;7.72;1.42;;;21.20;99.90;;;20.22;63.40;101045.09;4945013;28;20150;-78
2022/06/21 08:50:56;;;;;;;7.63;1.40;;;21.20;99.90;;;20.48;62.30;101037.59;4966749;28;20077;-78
2022/06/21 08:53:40;;;;;;;10.75;1.60;;;21.20;99.90;;;20.45;64.76;101028.97;4903231;28;20110;-78
2022/06/21 08:56:34;;;;;;;20.88;2.42;;;21.40;99.90;;;20.63;64.76;101031.97;4946885;28;20065;-78
2022/06/21 08:59:08;;;;;;;8.70;1.40;;;21.40;99.90;;;20.60;64.49;101035.72;4961838;28;20109;-78
2022/06/21 09:02:13;;;;;;;15.13;2.40;;;21.40;99.90;;;20.68;64.36;101030.59;4938220;28;20034;-78
2022/06/21 09:05:35;;;;;;;8.52;1.80;;;21.50;99.90;;;20.65;64.07;101033.53;4893756;28;20041;-79
2022/06/21 09:08:27;;;;;;;9.57;2.05;;;21.50;99.90;;;20.82;65.66;101034.78;4911865;28;20034;-78
2022/06/21 09:11:21;;;;;;;9.65;1.83;;;21.70;99.90;;;20.92;60.33;101045.53;4939990;28;20472;-77
2022/06/21 09:14:21;;;;;;;8.98;1.83;;;21.80;99.90;;;21.03;64.11;101044.63;4949317;28;20097;-78
2022/06/21 09:17:07;;;;;;;12.20;2.08;;;21.80;99.90;;;21.17;63.32;101051.47;4961769;28;20411;-78
2022/06/21 09:20:13;;;;;;;10.65;1.60;;;22.00;99.90;;;21.38;62.81;101049.63;4934214;28;20030;-78
2022/06/21 09:23:06;;;;;;;15.27;2.22;;;22.20;99.90;;;21.49;62.24;101057.59;4920327;28;20051;-78
2022/06/21 09:26:13;;;;;;;14.57;2.47;;;22.30;99.90;;;21.48;62.18;101050.53;4964063;28;20026;-77
2022/06/21 09:29:02;;;;;;;17.17;2.37;;;22.30;99.90;;;21.45;62.02;101056.16;4914440;28;20492;-80
2022/06/21 09:32:17;;;;;;;20.70;1.90;;;22.20;99.90;;;21.29;61.54;101059.31;4932783;28;20030;-78
2022/06/21 09:35:05;;;;;;;8.65;1.45;;;22.20;99.90;;;21.28;62.30;101054.06;4917321;28;20113;-79
2022/06/21 09:37:37;;;;;;;7.93;1.60;;;22.30;99.90;;;21.44;62.05;101054.44;4946767;28;20120;-78
2022/06/21 09:40:37;;;;;;;7.70;1.58;;;22.30;99.90;;;21.61;60.38;101063.69;4952959;28;20031;-78
2022/06/21 09:43:35;;;;;;;11.57;2.08;;;22.40;99.90;;;21.68;59.55;101061.31;4968894;28;20688;-78
2022/06/21 09:46:43;;;;;;;9.50;1.70;;;22.60;99.90;;;21.78;57.94;101075.59;4909454;28;20569;-78
2022/06/21 09:49:40;;;;;;;8.65;1.92;;;22.70;99.90;;;22.09;58.88;101067.50;4957263;28;20031;-78
2022/06/21 09:52:46;;;;;;;10.30;1.80;;;22.70;99.90;;;22.00;60.19;101058.44;4956611;28;20038;-79
2022/06/21 09:55:49;;;;;;;10.93;1.92;;;22.80;99.90;;;22.05;57.48;101072.31;4937497;28;20030;-78
2022/06/21 09:58:51;;;;;;;9.98;1.48;;;22.80;99.90;;;21.91;58.03;101072.69;4965694;28;20495;-78
2022/06/21 10:01:47;;;;;;;9.32;1.90;;;22.70;99.90;;;21.91;58.94;101080.72;4946938;28;20560;-78
2022/06/21 10:04:46;;;;;;;9.93;1.52;;;22.70;99.90;;;21.96;58.21;101069.59;4917711;28;20026;-78
2022/06/21 10:07:23;;;;;;;6.72;1.23;;;22.80;99.90;;;22.08;55.90;101080.06;4924660;28;20488;-78
2022/06/21 10:10:40;;;;;;;5.35;1.30;;;22.90;99.90;;;22.36;55.91;101076.78;4925099;28;20126;-78
2022/06/21 10:13:33;;;;;;;8.90;1.30;;;23.10;98.70;;;22.46;53.30;101088.34;4938476;28;20030;-78
2022/06/21 10:16:42;;;;;;;6.35;1.40;;;23.20;99.90;;;22.58;54.58;101097.13;4938997;28;20046;-79
2022/06/21 10:19:23;;;;;;;9.95;1.70;;;23.30;99.90;;;22.74;56.08;101083.97;4933277;28;20058;-79
2022/06/21 10:22:18;;;;;;;16.52;1.55;;;23.50;99.70;;;22.97;55.88;101089.03;4918286;28;20042;-78
2022/06/21 10:25:29;;;;;;;10.40;2.10;;;23.70;99.90;;;23.17;55.03;101093.41;4959098;22;20043;-79
2022/06/21 10:28:45;;;;;;;13.48;1.70;;;23.90;98.70;;;23.18;53.41;101105.88;4933664;28;20095;-81
2022/06/21 10:31:38;;;;;;;5.80;1.20;;;23.90;97.20;;;23.03;51.53;101113.50;4887836;28;20518;-78
2022/06/21 10:34:49;;;;;;;8.38;1.48;;;23.70;97.80;;;22.71;53.95;101101.19;4955357;28;20109;-79
2022/06/21 10:37:52;;;;;;;7.75;1.70;;;23.70;98.90;;;22.94;53.65;101104.44;4901256;28;20046;-80
2022/06/21 10:41:00;;;;;;;8.15;1.63;;;23.80;96.40;;;23.01;50.63;101120.03;4945059;28;20043;-79
2022/06/21 10:44:11;;;;;;;9.50;1.48;;;23.70;95.80;;;22.66;49.90;101122.25;4926771;28;20443;-79
2022/06/21 10:46:49;;;;;;;13.77;1.60;;;23.60;97.70;;;22.81;52.57;101113.78;4952831;28;20043;-79
2022/06/21 11:04:15;;;;;;;6.10;1.38;;;23.70;98.70;;;22.98;53.10;101114.88;4955149;28;20770;-78
2022/06/21 11:07:20;;;;;;;6.03;1.40;;;23.70;96.50;;;22.88;51.76;101107.69;4962901;28;20483;-78
2022/06/21 11:10:02;;;;;;;14.55;2.08;;;23.70;98.10;;;22.98;53.30;101110.41;4941385;28;20216;-78
2022/06/21 11:12:54;;;;;;;9.05;1.75;;;23.90;99.20;;;23.27;53.96;101118.41;4937872;28;20382;-77
2022/06/21 11:16:18;;;;;;;6.45;1.60;;;23.90;95.80;;;23.18;49.89;101138.09;4949174;28;20099;-77
2022/06/21 11:19:14;;;;;;;28.05;2.03;;;24.00;96.60;;;23.17;49.73;101144.44;4936194;28;20117;-75
2022/06/21 11:22:11;;;;;;;6.53;1.52;;;24.00;95.80;;;23.11;49.02;101140.50;4945180;28;20394;-77
2022/06/21 11:25:05;;;;;;;8.45;1.40;;;23.90;95.60;;;23.06;50.13;101137.38;4967626;28;20046;-76
2022/06/21 11:28:12;;;;;;;9.73;1.42;;;24.00;97.70;;;23.43;50.69;101142.00;4925322;28;20105;-75
2022/06/21 11:31:38;;;;;;;14.05;1.70;;;24.20;96.60;;;23.60;49.45;101153.00;4955063;28;20101;-76
2022/06/21 11:34:40;;;;;;;7.20;1.38;;;24.40;95.80;;;23.60;49.28;101153.00;4898864;28;20035;-76
2022/06/21 11:37:13;;;;;;;16.30;1.58;;;24.30;95.00;;;23.50;49.38;101150.34;4976229;28;20110;-76
2022/06/21 11:39:56;;;;;;;9.10;1.60;;;24.20;95.20;;;23.45;49.88;101150.75;4954700;28;20133;-76
2022/06/21 11:42:36;;;;;;;6.00;1.33;;;24.20;96.00;;;23.46;49.74;101147.09;4937320;28;20033;-76
2022/06/21 11:45:14;;;;;;;5.95;1.60;;;24.30;96.60;;;23.71;50.67;101152.81;4942567;28;20029;-77
2022/06/21 11:47:45;;;;;;;9.77;1.42;;;24.50;95.40;;;23.97;48.12;101154.88;4942850;28;20106;-76
2022/06/21 11:50:24;;;;;;;12.45;1.60;;;24.70;96.00;;;24.28;49.40;101158.13;4961329;28;20117;-77
2022/06/21 11:53:23;;;;;;;7.28;1.20;;;24.90;93.70;;;24.24;46.67;101167.50;4944335;28;22175;-76
2022/06/21 11:56:20;;;;;;;4.40;1.25;;;25.00;94.10;;;24.40;47.88;101162.28;4968989;28;20049;-76
2022/06/21 11:59:33;;;;;;;6.82;1.17;;;25.00;92.40;;;24.02;45.11;101184.88;4954848;28;20026;-75
2022/06/21 12:02:19;;;;;;;7.47;1.20;;;24.80;94.30;;;24.00;47.80;101170.72;4962748;28;20033;-77
2022/06/21 12:04:59;;;;;;;14.70;1.83;;;24.80;94.70;;;24.05;48.89;101160.34;4960495;23;20452;-77
2022/06/21 12:07:48;;;;;;;2.42;0.80;;;24.80;93.00;;;24.12;44.23;101186.50;4956927;28;20494;-77
2022/06/21 12:10:52;;;;;;;6.18;1.52;;;24.90;93.60;;;24.32;44.97;101181.88;4950577;28;20049;-75